Time;durP1;ratioP1;P1;durP2;ratioP2;P2;SDS_P1;SDS_P2;PMS_P1;PMS_P2;Temp;Humidity;BMP_temperature;BMP_pressure;BME280_temperature;BME280_humidity;BME280_pressure;Samples;Min_cycle;Max_cycle;Signal;HPM_P1;HPM_P2
2023/05/09 00:02:10;;;;;;;17.50;15.70;;;12.90;99.90;;;;;;5074678;28;20564;-71
2023/05/09 00:04:37;;;;;;;17.33;15.30;;;12.90;99.90;;;;;;5074839;28;20250;-71
2023/05/09 00:07:04;;;;;;;17.50;15.70;;;12.90;99.90;;;;;;5074748;28;20652;-71
2023/05/09 00:09:30;;;;;;;16.10;14.60;;;12.80;99.90;;;;;;5074695;28;20255;-71
2023/05/09 00:11:57;;;;;;;18.03;15.60;;;12.80;99.90;;;;;;5074561;28;20224;-71
2023/05/09 00:14:26;;;;;;;15.73;14.23;;;12.80;99.90;;;;;;5074515;28;20243;-71
2023/05/09 00:16:52;;;;;;;17.57;15.80;;;12.80;99.90;;;;;;5074747;28;20207;-71
2023/05/09 00:19:19;;;;;;;17.80;15.97;;;12.80;99.90;;;;;;5074166;28;20596;-71
2023/05/09 00:21:46;;;;;;;18.57;16.57;;;12.80;99.90;;;;;;5074360;28;20552;-71
2023/05/09 00:24:12;;;;;;;17.13;15.33;;;12.80;99.90;;;;;;5074412;28;20193;-71
2023/05/09 00:26:39;;;;;;;16.30;14.63;;;12.70;99.90;;;;;;5074248;28;20204;-71
2023/05/09 00:29:05;;;;;;;17.03;15.23;;;12.70;99.90;;;;;;5074206;28;20193;-71
2023/05/09 00:31:33;;;;;;;16.13;14.53;;;12.80;99.90;;;;;;5074114;28;20232;-71
2023/05/09 00:34:00;;;;;;;16.93;15.23;;;12.80;99.90;;;;;;5074356;28;20201;-71
2023/05/09 00:36:26;;;;;;;15.93;14.33;;;12.70;99.90;;;;;;5074315;28;20197;-71
2023/05/09 00:38:53;;;;;;;15.40;13.87;;;12.80;99.90;;;;;;5074260;28;20250;-71
2023/05/09 00:41:20;;;;;;;16.00;14.40;;;12.80;99.90;;;;;;5074165;28;20631;-71
2023/05/09 00:43:46;;;;;;;15.90;14.30;;;12.80;99.90;;;;;;5074008;28;20204;-72
2023/05/09 00:46:13;;;;;;;15.87;14.37;;;12.90;99.90;;;;;;5074270;28;20201;-71
2023/05/09 00:48:41;;;;;;;15.20;13.70;;;12.80;99.90;;;;;;5074113;28;20227;-72
2023/05/09 00:51:08;;;;;;;15.73;13.83;;;12.80;99.90;;;;;;5074067;28;20290;-72
2023/05/09 00:53:35;;;;;;;15.67;14.27;;;12.80;99.90;;;;;;5073718;28;20228;-72
2023/05/09 00:56:02;;;;;;;15.47;13.97;;;12.80;99.90;;;;;;5073882;28;20196;-71
2023/05/09 00:58:29;;;;;;;14.90;13.50;;;12.80;99.90;;;;;;5073719;28;20250;-71
2023/05/09 01:00:56;;;;;;;15.80;14.10;;;12.80;99.90;;;;;;5073874;28;20193;-71
2023/05/09 01:03:23;;;;;;;16.60;14.87;;;12.80;99.90;;;;;;5073798;28;20200;-71
2023/05/09 01:05:58;;;;;;;16.37;14.77;;;12.80;99.90;;;;;;5073543;28;20607;-71
2023/05/09 01:08:37;;;;;;;16.20;14.50;;;12.70;99.90;;;;;;5073608;28;20201;-71
2023/05/09 01:11:10;;;;;;;16.03;14.47;;;12.70;99.90;;;;;;5073683;28;20244;-71
2023/05/09 01:13:44;;;;;;;16.00;14.17;;;12.60;99.90;;;;;;5073612;28;20200;-71
2023/05/09 01:16:17;;;;;;;16.30;14.70;;;12.60;99.90;;;;;;5073465;28;20246;-71
2023/05/09 01:18:49;;;;;;;18.80;15.50;;;12.50;99.90;;;;;;5073372;28;20713;-72
2023/05/09 01:21:21;;;;;;;16.30;14.70;;;12.50;99.90;;;;;;5073355;28;20197;-71
2023/05/09 01:24:31;;;;;;;16.23;14.63;;;12.50;99.90;;;;;;5073619;28;20599;-71
2023/05/09 01:27:21;;;;;;;16.23;14.63;;;12.40;99.90;;;;;;5068009;28;20194;-72
2023/05/09 01:29:55;;;;;;;17.40;15.60;;;12.30;99.90;;;;;;5072943;28;20197;-71
2023/05/09 01:32:25;;;;;;;17.43;15.70;;;12.30;99.90;;;;;;5072437;28;20631;-71
2023/05/09 01:34:54;;;;;;;16.90;15.20;;;12.20;99.90;;;;;;5072807;28;20674;-71
2023/05/09 01:37:25;;;;;;;17.17;15.37;;;12.20;99.90;;;;;;5073066;28;20205;-71
2023/05/09 01:39:56;;;;;;;17.60;15.80;;;12.10;99.90;;;;;;5073097;28;20258;-72
2023/05/09 01:42:24;;;;;;;16.90;15.13;;;12.10;99.90;;;;;;5073305;28;20349;-71
2023/05/09 01:44:53;;;;;;;17.33;15.53;;;12.00;99.90;;;;;;5073104;28;20201;-71
2023/05/09 01:47:21;;;;;;;18.33;16.40;;;12.00;99.90;;;;;;5073152;28;20197;-70
2023/05/09 01:49:48;;;;;;;18.23;16.30;;;12.00;99.90;;;;;;5072834;28;20247;-71
2023/05/09 01:52:18;;;;;;;18.23;16.37;;;11.90;99.90;;;;;;5072657;28;20276;-71
2023/05/09 01:54:45;;;;;;;17.43;15.77;;;11.90;99.90;;;;;;5072774;28;20263;-71
2023/05/09 01:57:14;;;;;;;19.70;16.17;;;11.90;99.90;;;;;;5072890;28;20207;-71
2023/05/09 01:59:42;;;;;;;18.07;16.13;;;11.80;99.90;;;;;;5072969;28;20236;-71
2023/05/09 02:02:11;;;;;;;17.90;16.10;;;11.70;99.90;;;;;;5072807;28;20231;-71
2023/05/09 02:04:39;;;;;;;18.47;16.57;;;11.70;99.90;;;;;;5072588;28;20197;-71
2023/05/09 02:07:07;;;;;;;20.57;17.20;;;11.50;99.90;;;;;;5072667;28;20644;-71
2023/05/09 02:09:34;;;;;;;19.50;17.00;;;11.50;99.90;;;;;;5072785;28;20197;-72
2023/05/09 02:12:03;;;;;;;18.50;16.47;;;11.50;99.90;;;;;;5072625;28;20274;-72
2023/05/09 02:14:30;;;;;;;19.37;17.27;;;11.40;99.90;;;;;;5072459;28;20537;-71
2023/05/09 02:16:57;;;;;;;18.67;16.77;;;11.30;99.90;;;;;;5072592;28;20604;-71
2023/05/09 02:19:25;;;;;;;20.23;18.10;;;11.30;99.90;;;;;;5072434;28;20207;-71
2023/05/09 02:21:51;;;;;;;21.00;18.47;;;11.20;99.90;;;;;;5072329;28;20221;-71
2023/05/09 02:24:18;;;;;;;20.83;18.63;;;11.20;99.90;;;;;;5072285;28;20657;-72
2023/05/09 02:26:45;;;;;;;22.17;19.03;;;11.20;99.90;;;;;;5072549;28;20254;-71
2023/05/09 02:29:12;;;;;;;22.67;18.87;;;11.20;99.90;;;;;;5072471;28;20208;-71
2023/05/09 02:31:40;;;;;;;21.13;18.20;;;11.20;99.90;;;;;;5072484;28;20282;-72
2023/05/09 02:34:09;;;;;;;22.37;18.53;;;11.20;99.90;;;;;;5072328;28;20645;-72
2023/05/09 02:36:38;;;;;;;20.33;18.13;;;11.20;99.90;;;;;;5072410;28;20719;-73
2023/05/09 02:39:06;;;;;;;20.57;18.00;;;11.20;99.90;;;;;;5072576;28;20201;-72
2023/05/09 02:41:32;;;;;;;22.20;18.73;;;11.20;99.90;;;;;;5072525;28;20249;-73
2023/05/09 02:43:59;;;;;;;18.80;16.90;;;11.30;99.90;;;;;;5075104;28;20200;-73
2023/05/09 02:46:26;;;;;;;20.40;18.27;;;11.30;99.90;;;;;;5076329;28;20204;-72
2023/05/09 02:48:52;;;;;;;20.73;18.50;;;11.30;99.90;;;;;;5076314;28;20197;-72
2023/05/09 02:51:19;;;;;;;20.50;18.30;;;11.30;99.90;;;;;;5076107;28;20201;-72
2023/05/09 02:53:47;;;;;;;20.07;18.07;;;11.40;99.90;;;;;;5075872;28;20233;-72
2023/05/09 02:56:13;;;;;;;19.80;17.70;;;11.40;99.90;;;;;;5076091;28;20205;-72
2023/05/09 02:58:40;;;;;;;20.47;18.27;;;11.40;99.90;;;;;;5075911;28;20201;-72
2023/05/09 03:01:07;;;;;;;22.23;18.13;;;11.50;99.90;;;;;;5075831;28;20205;-72
2023/05/09 03:03:33;;;;;;;20.60;18.27;;;11.50;99.90;;;;;;5075770;28;20200;-72
2023/05/09 03:06:00;;;;;;;19.30;17.30;;;11.50;99.90;;;;;;5075826;28;20199;-72
2023/05/09 03:08:26;;;;;;;19.63;17.53;;;11.50;99.90;;;;;;5075871;28;20197;-72
2023/05/09 03:10:54;;;;;;;22.03;17.80;;;11.50;99.90;;;;;;5075702;28;20193;-72
2023/05/09 03:13:21;;;;;;;21.20;18.90;;;11.50;99.90;;;;;;5075585;28;20225;-72
2023/05/09 03:15:48;;;;;;;20.30;17.83;;;11.50;99.90;;;;;;5075522;28;20200;-72
2023/05/09 03:18:14;;;;;;;19.67;17.57;;;11.50;99.90;;;;;;5075869;28;20193;-72
2023/05/09 03:20:41;;;;;;;21.30;18.50;;;11.50;99.90;;;;;;5075457;28;20660;-72
2023/05/09 03:23:08;;;;;;;21.03;17.33;;;11.50;99.90;;;;;;5075565;28;20196;-72
2023/05/09 03:25:35;;;;;;;19.43;17.37;;;11.50;99.90;;;;;;5075499;28;20197;-72
2023/05/09 03:28:03;;;;;;;22.17;18.77;;;11.50;99.90;;;;;;5075331;28;20572;-72
2023/05/09 03:30:30;;;;;;;19.03;17.13;;;11.50;99.90;;;;;;5075337;28;20702;-72
2023/05/09 03:32:56;;;;;;;21.90;17.00;;;11.50;99.90;;;;;;5075435;28;20307;-72
2023/05/09 03:35:23;;;;;;;18.57;16.67;;;11.50;99.90;;;;;;5075438;28;20274;-72
2023/05/09 03:37:50;;;;;;;19.37;17.37;;;11.60;99.90;;;;;;5075416;28;20602;-71
2023/05/09 03:40:16;;;;;;;20.67;17.73;;;11.60;99.90;;;;;;5075207;28;20250;-72
2023/05/09 03:42:43;;;;;;;18.60;16.50;;;11.60;99.90;;;;;;5075158;28;20197;-72
2023/05/09 03:45:12;;;;;;;17.67;15.87;;;11.60;99.90;;;;;;5075106;28;20254;-73
2023/05/09 03:47:38;;;;;;;18.87;16.97;;;11.60;99.90;;;;;;5075046;28;20717;-70
2023/05/09 03:50:06;;;;;;;19.20;15.83;;;11.60;99.90;;;;;;5075189;28;20251;-71
2023/05/09 03:52:33;;;;;;;17.50;15.63;;;11.60;99.90;;;;;;5074729;28;20283;-71
2023/05/09 03:55:00;;;;;;;20.00;16.17;;;11.50;99.90;;;;;;5073933;28;20653;-72
2023/05/09 03:57:26;;;;;;;18.67;15.70;;;11.50;99.90;;;;;;5074728;28;20201;-71
2023/05/09 03:59:53;;;;;;;17.97;15.77;;;11.50;99.90;;;;;;5075034;28;20204;-71
2023/05/09 04:02:23;;;;;;;16.83;15.13;;;11.50;99.90;;;;;;5074693;28;20603;-72
2023/05/09 04:04:49;;;;;;;16.70;15.00;;;11.50;99.90;;;;;;5074831;28;20611;-71
2023/05/09 04:07:16;;;;;;;16.10;14.03;;;11.60;99.90;;;;;;5074614;28;20624;-72
2023/05/09 04:09:43;;;;;;;15.73;14.13;;;11.60;99.90;;;;;;5074487;28;20193;-71
2023/05/09 04:12:09;;;;;;;15.60;14.10;;;11.60;99.90;;;;;;5074542;28;20225;-71
2023/05/09 04:14:36;;;;;;;15.73;14.03;;;11.60;99.90;;;;;;5074669;28;20201;-72
2023/05/09 04:17:03;;;;;;;15.73;14.07;;;11.60;99.90;;;;;;5074669;28;20193;-72
2023/05/09 04:19:31;;;;;;;17.90;14.07;;;11.60;99.90;;;;;;5074425;28;20565;-71
2023/05/09 04:21:57;;;;;;;15.17;13.67;;;11.60;99.90;;;;;;5074417;28;20250;-71
2023/05/09 04:24:24;;;;;;;14.80;13.30;;;11.70;99.90;;;;;;5074212;28;20196;-72
2023/05/09 04:26:51;;;;;;;14.37;12.97;;;11.70;99.90;;;;;;5074276;28;20193;-72
2023/05/09 04:29:18;;;;;;;14.50;13.10;;;11.70;99.90;;;;;;5074337;28;20205;-72
2023/05/09 04:31:44;;;;;;;13.77;12.37;;;11.70;99.90;;;;;;5074294;28;20197;-72
2023/05/09 04:34:11;;;;;;;18.00;13.27;;;11.80;99.90;;;;;;5074133;28;20645;-72
2023/05/09 04:36:39;;;;;;;13.83;12.33;;;11.80;99.90;;;;;;5074118;28;20652;-72
2023/05/09 04:39:06;;;;;;;14.40;12.90;;;11.90;99.90;;;;;;5073950;28;20193;-72
2023/05/09 04:41:33;;;;;;;13.53;12.23;;;11.90;99.90;;;;;;5074158;28;20208;-72
2023/05/09 04:43:59;;;;;;;14.63;12.50;;;11.90;99.90;;;;;;5073783;28;20631;-71
2023/05/09 04:46:26;;;;;;;17.17;12.30;;;11.90;99.90;;;;;;5073893;28;20246;-72
2023/05/09 04:48:53;;;;;;;13.47;12.10;;;12.00;99.90;;;;;;5073867;28;20205;-71
2023/05/09 04:51:19;;;;;;;13.40;11.53;;;12.00;99.90;;;;;;5073659;28;20258;-71
2023/05/09 04:53:47;;;;;;;18.37;11.20;;;12.00;99.90;;;;;;5073336;28;20264;-72
2023/05/09 04:56:14;;;;;;;13.57;11.53;;;12.00;99.90;;;;;;5073798;28;20197;-72
2023/05/09 04:58:40;;;;;;;13.03;11.73;;;12.10;99.90;;;;;;5073567;28;20549;-71
2023/05/09 05:01:07;;;;;;;13.60;12.13;;;12.10;99.90;;;;;;5073632;28;20250;-71
2023/05/09 05:03:34;;;;;;;22.57;12.07;;;12.10;99.90;;;;;;5073570;28;20197;-71
2023/05/09 05:06:00;;;;;;;13.47;12.03;;;12.20;99.90;;;;;;5073391;28;20197;-71
2023/05/09 05:08:27;;;;;;;12.30;11.10;;;12.30;99.90;;;;;;5073272;28;20197;-71
2023/05/09 05:10:55;;;;;;;13.43;12.03;;;12.30;99.90;;;;;;5073489;28;20251;-72
2023/05/09 05:13:22;;;;;;;12.53;11.27;;;12.40;99.90;;;;;;5073359;28;20282;-72
2023/05/09 05:15:48;;;;;;;14.93;11.70;;;12.40;99.90;;;;;;5073245;28;20262;-72
2023/05/09 05:18:15;;;;;;;12.97;11.10;;;12.50;99.90;;;;;;5073165;28;20254;-72
2023/05/09 05:20:42;;;;;;;14.63;11.47;;;12.50;99.90;;;;;;5073071;28;20201;-72
2023/05/09 05:23:09;;;;;;;11.83;10.57;;;12.60;99.90;;;;;;5072990;28;20205;-72
2023/05/09 05:25:35;;;;;;;11.73;10.23;;;12.60;99.90;;;;;;5072932;28;20621;-73
2023/05/09 05:28:03;;;;;;;14.63;11.50;;;12.70;99.90;;;;;;5073129;28;20246;-72
2023/05/09 05:30:30;;;;;;;12.07;10.87;;;12.80;99.90;;;;;;5072999;28;20201;-72
2023/05/09 05:32:57;;;;;;;11.33;10.10;;;12.80;99.90;;;;;;5072722;28;20294;-72
2023/05/09 05:35:23;;;;;;;12.17;10.97;;;12.90;99.90;;;;;;5072720;28;20258;-73
2023/05/09 05:37:50;;;;;;;10.97;9.97;;;12.90;99.90;;;;;;5072790;28;20200;-73
2023/05/09 05:40:17;;;;;;;11.47;9.97;;;13.00;99.90;;;;;;5072777;28;20254;-72
2023/05/09 05:42:45;;;;;;;11.87;10.77;;;13.10;99.90;;;;;;5072897;28;20243;-72
2023/05/09 05:45:13;;;;;;;11.47;9.93;;;13.20;99.90;;;;;;5072722;28;20241;-72
2023/05/09 05:47:39;;;;;;;10.87;9.87;;;13.20;99.90;;;;;;5072424;28;20714;-72
2023/05/09 05:50:09;;;;;;;13.77;10.07;;;13.30;99.90;;;;;;5072481;28;20246;-71
2023/05/09 05:52:35;;;;;;;13.33;10.53;;;13.30;99.90;;;;;;5072216;28;20636;-72
2023/05/09 05:55:02;;;;;;;14.13;10.57;;;13.40;99.90;;;;;;5072552;28;20197;-71
2023/05/09 05:57:29;;;;;;;11.63;10.53;;;13.50;99.90;;;;;;5072684;28;20197;-72
2023/05/09 05:59:55;;;;;;;11.77;10.67;;;13.40;99.90;;;;;;5072598;28;20656;-71
2023/05/09 06:02:23;;;;;;;11.40;10.30;;;13.60;99.90;;;;;;5072561;28;20246;-71
2023/05/09 06:04:50;;;;;;;10.93;9.93;;;13.60;99.90;;;;;;5072203;28;20615;-73
2023/05/09 06:07:16;;;;;;;13.67;10.20;;;13.60;99.90;;;;;;5072644;28;20201;-72
2023/05/09 06:09:43;;;;;;;10.90;9.77;;;13.50;99.90;;;;;;5072443;28;20201;-72
2023/05/09 06:12:10;;;;;;;11.30;9.97;;;13.40;99.90;;;;;;5072659;28;20255;-72
2023/05/09 06:14:37;;;;;;;11.53;10.27;;;13.40;99.90;;;;;;5072417;28;20288;-71
2023/05/09 06:17:04;;;;;;;14.27;9.10;;;13.30;99.90;;;;;;5072221;28;20201;-74
2023/05/09 06:19:32;;;;;;;11.30;10.03;;;13.40;99.90;;;;;;5072053;28;20534;-73
2023/05/09 06:21:58;;;;;;;11.23;10.13;;;13.20;99.90;;;;;;5072613;28;20192;-74
2023/05/09 06:24:25;;;;;;;13.30;10.37;;;13.10;99.90;;;;;;5072456;28;20538;-74
2023/05/09 06:26:52;;;;;;;12.53;10.33;;;13.10;99.90;;;;;;5072415;28;20197;-72
2023/05/09 06:29:18;;;;;;;13.23;10.67;;;13.10;99.90;;;;;;5072258;28;20197;-72
2023/05/09 06:31:45;;;;;;;14.10;9.63;;;13.00;99.90;;;;;;5072215;28;20679;-74
2023/05/09 06:34:12;;;;;;;10.37;9.37;;;12.90;99.90;;;;;;5072494;28;20623;-72
2023/05/09 06:36:40;;;;;;;11.10;9.10;;;12.80;99.90;;;;;;5072397;28;20201;-71
2023/05/09 06:39:06;;;;;;;14.17;10.10;;;12.70;99.90;;;;;;5072261;28;20200;-72
2023/05/09 06:41:33;;;;;;;12.27;10.00;;;12.80;99.90;;;;;;5072336;28;20219;-75
2023/05/09 06:44:01;;;;;;;13.07;10.20;;;12.90;99.90;;;;;;5072044;28;20196;-71
2023/05/09 06:46:28;;;;;;;10.63;9.60;;;13.00;99.90;;;;;;5072301;28;20603;-72
2023/05/09 06:48:54;;;;;;;13.83;9.13;;;13.00;99.90;;;;;;5072333;28;20255;-72
2023/05/09 06:51:21;;;;;;;10.73;9.63;;;13.10;99.90;;;;;;5072286;28;20653;-72
2023/05/09 06:53:49;;;;;;;11.33;8.97;;;13.20;99.90;;;;;;5072025;28;20290;-73
2023/05/09 06:56:18;;;;;;;13.00;8.77;;;13.10;99.90;;;;;;5072128;28;20319;-73
2023/05/09 06:58:45;;;;;;;11.07;9.60;;;13.10;99.90;;;;;;5071955;28;20208;-72
2023/05/09 07:01:11;;;;;;;11.03;9.30;;;13.20;99.90;;;;;;5072281;28;20201;-72
2023/05/09 07:03:38;;;;;;;9.07;8.17;;;13.30;99.90;;;;;;5071856;28;20661;-74
2023/05/09 07:06:05;;;;;;;11.27;8.07;;;13.40;99.90;;;;;;5071998;28;20201;-73
2023/05/09 07:08:31;;;;;;;8.73;7.93;;;13.40;99.90;;;;;;5071880;28;20223;-73
2023/05/09 07:10:59;;;;;;;8.87;8.07;;;13.50;99.90;;;;;;5071975;28;20197;-72
2023/05/09 07:13:26;;;;;;;10.50;7.93;;;13.40;99.90;;;;;;5071931;28;20282;-73
2023/05/09 07:15:53;;;;;;;9.67;8.23;;;13.50;99.90;;;;;;5071782;28;20671;-72
2023/05/09 07:18:19;;;;;;;8.27;7.47;;;13.70;99.90;;;;;;5071951;28;20298;-72
2023/05/09 07:20:46;;;;;;;10.30;8.00;;;13.80;99.90;;;;;;5071701;28;20219;-72
2023/05/09 07:23:12;;;;;;;8.23;7.53;;;13.90;99.90;;;;;;5071683;28;20205;-75
2023/05/09 07:25:39;;;;;;;8.30;7.50;;;14.20;99.90;;;;;;5071801;28;20197;-74
2023/05/09 07:28:07;;;;;;;8.40;7.00;;;14.40;99.90;;;;;;5071870;28;20533;-74
2023/05/09 07:30:34;;;;;;;7.60;6.43;;;14.50;99.90;;;;;;5073673;28;20201;-75
2023/05/09 07:33:01;;;;;;;8.33;6.47;;;14.70;99.90;;;;;;5075277;28;20217;-73
2023/05/09 07:35:27;;;;;;;7.37;6.67;;;15.00;99.90;;;;;;5075013;28;20231;-74
2023/05/09 07:37:54;;;;;;;8.10;7.10;;;15.10;99.90;;;;;;5075294;28;20239;-74
2023/05/09 07:40:21;;;;;;;11.45;7.40;;;15.30;99.90;;;;;;5077553;28;20196;-74
2023/05/09 07:42:48;;;;;;;9.30;7.05;;;15.30;99.90;;;;;;5054483;28;20196;-75
2023/05/09 07:45:17;;;;;;;9.63;7.10;;;15.50;99.90;;;;;;5054630;28;20202;-75
2023/05/09 07:47:43;;;;;;;8.00;6.95;;;15.70;99.90;;;;;;5054862;28;20210;-74
2023/05/09 07:50:10;;;;;;;8.88;7.85;;;15.90;99.90;;;;;;5054487;28;20244;-74
2023/05/09 07:52:37;;;;;;;8.35;7.10;;;15.70;99.90;;;;;;5054406;28;20300;-74
2023/05/09 07:55:04;;;;;;;10.25;7.18;;;16.00;99.90;;;;;;5054427;28;20201;-76
2023/05/09 07:57:30;;;;;;;8.20;6.68;;;16.20;99.90;;;;;;5054711;28;20198;-72
2023/05/09 07:59:57;;;;;;;7.32;6.63;;;16.20;99.90;;;;;;5054550;28;20198;-73
2023/05/09 08:02:25;;;;;;;7.07;5.55;;;16.40;99.90;;;;;;5054494;28;20201;-75
2023/05/09 08:04:51;;;;;;;6.50;5.43;;;16.50;99.90;;;;;;5054403;28;20649;-74
2023/05/09 08:07:18;;;;;;;7.60;5.82;;;16.60;99.90;;;;;;5054533;28;20194;-76
2023/05/09 08:09:45;;;;;;;8.38;6.20;;;16.70;99.90;;;;;;5054177;28;20238;-76
2023/05/09 08:12:11;;;;;;;7.05;5.40;;;16.60;99.90;;;;;;5054339;28;20256;-75
2023/05/09 08:14:38;;;;;;;6.13;5.45;;;16.70;99.90;;;;;;5053868;28;20222;-75
2023/05/09 08:17:04;;;;;;;5.80;4.90;;;16.90;99.90;;;;;;5054144;28;20201;-76
2023/05/09 08:19:32;;;;;;;6.15;5.00;;;17.00;99.30;;;;;;5053765;28;20198;-75
2023/05/09 08:21:59;;;;;;;5.00;4.60;;;17.20;97.30;;;;;;5054078;28;20198;-75
2023/05/09 08:24:26;;;;;;;5.38;4.80;;;17.20;95.50;;;;;;5054199;28;20202;-75
2023/05/09 08:26:52;;;;;;;4.95;4.47;;;17.40;96.30;;;;;;5077905;28;20273;-73
2023/05/09 08:29:19;;;;;;;8.15;5.03;;;17.50;96.70;;;;;;5095137;28;20200;-73
2023/05/09 08:31:46;;;;;;;10.05;5.20;;;17.80;95.80;;;;;;5094222;28;20200;-73
2023/05/09 08:34:12;;;;;;;5.82;5.22;;;17.80;95.00;;;;;;5094727;28;20265;-73
2023/05/09 08:36:40;;;;;;;6.28;5.40;;;17.70;93.70;;;;;;5085507;28;20193;-73
2023/05/09 08:39:08;;;;;;;5.00;4.60;;;17.90;94.70;;;;;;5073558;28;20204;-72
2023/05/09 08:41:35;;;;;;;5.65;4.90;;;18.30;95.30;;;;;;5073829;28;20592;-73
2023/05/09 08:44:02;;;;;;;6.90;5.20;;;18.50;94.20;;;;;;5074073;28;20649;-73
2023/05/09 08:46:33;;;;;;;5.20;4.70;;;18.70;94.50;;;;;;5073998;28;20242;-73
2023/05/09 08:49:00;;;;;;;5.25;4.70;;;18.80;94.00;;;;;;5073897;28;20208;-72
2023/05/09 08:51:29;;;;;;;6.45;4.40;;;18.90;92.30;;;;;;5074060;28;20201;-73
2023/05/09 08:53:57;;;;;;;4.60;4.20;;;19.10;92.00;;;;;;5073696;28;20259;-72
2023/05/09 08:56:25;;;;;;;5.85;3.60;;;19.30;90.90;;;;;;5073420;28;20263;-73
2023/05/09 08:58:52;;;;;;;4.40;3.88;;;19.40;81.80;;;;;;5073704;28;20292;-73
2023/05/09 09:01:20;;;;;;;4.80;4.40;;;19.60;82.20;;;;;;5073629;28;20556;-73
2023/05/09 09:03:48;;;;;;;5.00;4.60;;;19.70;80.80;;;;;;5073582;28;20250;-73
2023/05/09 09:06:16;;;;;;;4.78;4.30;;;19.80;81.20;;;;;;5073804;28;20205;-73
2023/05/09 09:08:45;;;;;;;4.72;4.32;;;19.90;79.80;;;;;;5073420;28;20243;-73
2023/05/09 09:11:14;;;;;;;6.47;4.70;;;20.20;78.40;;;;;;5073455;28;20201;-73
2023/05/09 09:13:42;;;;;;;5.20;4.70;;;20.30;78.30;;;;;;5073455;28;20213;-73
2023/05/09 09:16:11;;;;;;;5.15;4.60;;;20.60;78.00;;;;;;5073372;28;20193;-73
2023/05/09 09:18:38;;;;;;;5.38;4.20;;;20.80;76.00;;;;;;5073529;28;20251;-73
2023/05/09 09:21:07;;;;;;;4.55;4.15;;;20.90;76.00;;;;;;5073534;28;20197;-73
2023/05/09 09:23:34;;;;;;;4.45;4.15;;;21.00;74.40;;;;;;5073500;28;20197;-73
2023/05/09 09:26:03;;;;;;;6.10;4.38;;;21.10;73.70;;;;;;5073410;28;20197;-73
2023/05/09 09:28:31;;;;;;;4.45;4.05;;;20.90;69.30;;;;;;5073250;28;20242;-72
2023/05/09 09:30:58;;;;;;;5.20;4.55;;;21.10;70.80;;;;;;5073088;28;20266;-73
2023/05/09 09:33:26;;;;;;;5.10;4.53;;;21.00;69.20;;;;;;5073279;28;20279;-73
2023/05/09 09:35:55;;;;;;;4.93;4.43;;;21.10;69.50;;;;;;5073216;28;20607;-79
2023/05/09 09:38:23;;;;;;;7.88;4.15;;;20.80;67.50;;;;;;5072613;28;20717;-80
2023/05/09 09:40:53;;;;;;;6.20;4.45;;;21.10;68.90;;;;;;5072528;28;20228;-72
2023/05/09 09:43:20;;;;;;;5.38;3.72;;;21.10;67.30;;;;;;5055381;28;20202;-73
2023/05/09 09:45:50;;;;;;;4.45;3.83;;;21.20;63.60;;;;;;5052730;28;20197;-71
2023/05/09 09:48:17;;;;;;;8.02;4.03;;;21.30;62.00;;;;;;5052883;28;20198;-72
2023/05/09 09:50:43;;;;;;;5.07;4.00;;;21.60;62.90;;;;;;5052579;28;20275;-73
2023/05/09 09:53:10;;;;;;;6.28;4.10;;;21.80;61.40;;;;;;5051540;28;20619;-74
2023/05/09 09:55:37;;;;;;;4.88;3.72;;;22.10;59.90;;;;;;5052174;28;20781;-75
2023/05/09 09:58:03;;;;;;;4.05;3.65;;;22.50;60.00;;;;;;5052479;28;20604;-76
2023/05/09 10:00:31;;;;;;;5.40;4.03;;;22.70;56.90;;;;;;5052777;28;20198;-76
2023/05/09 10:02:59;;;;;;;4.40;3.72;;;22.60;56.20;;;;;;5051978;28;20208;-76
2023/05/09 10:05:27;;;;;;;11.73;4.57;;;22.90;53.80;;;;;;5052506;28;20612;-76
2023/05/09 10:07:56;;;;;;;5.55;3.70;;;22.80;53.60;;;;;;5052543;28;20247;-76
2023/05/09 10:10:25;;;;;;;5.32;3.60;;;23.00;52.00;;;;;;5052061;28;20220;-77
2023/05/09 10:12:55;;;;;;;4.63;3.50;;;23.10;51.60;;;;;;5052549;28;20255;-76
2023/05/09 10:15:23;;;;;;;4.00;3.40;;;23.40;51.60;;;;;;5052589;28;20229;-77
2023/05/09 10:17:54;;;;;;;4.20;3.28;;;23.50;47.60;;;;;;5052318;28;20657;-76
2023/05/09 10:20:22;;;;;;;3.28;2.97;;;23.20;46.50;;;;;;5052473;28;20225;-75
2023/05/09 10:22:50;;;;;;;3.05;2.85;;;23.80;46.70;;;;;;5052139;28;20274;-76
2023/05/09 10:25:20;;;;;;;4.03;2.90;;;24.40;46.50;;;;;;5052489;28;20197;-76
2023/05/09 10:27:48;;;;;;;4.32;3.10;;;24.80;44.90;;;;;;5052371;28;20213;-77
2023/05/09 10:30:18;;;;;;;5.63;3.10;;;24.90;42.00;;;;;;5052441;28;20194;-76
2023/05/09 10:32:52;;;;;;;4.13;2.97;;;24.00;41.20;;;;;;5052245;28;20206;-75
2023/05/09 10:35:21;;;;;;;3.35;2.90;;;23.90;41.20;;;;;;5052098;28;20222;-74
2023/05/09 10:37:50;;;;;;;4.75;3.00;;;24.50;42.80;;;;;;5052241;28;20201;-75
2023/05/09 10:40:19;;;;;;;3.67;3.03;;;25.20;39.70;;;;;;5052485;28;20205;-75
2023/05/09 10:42:45;;;;;;;3.63;2.83;;;25.50;38.80;;;;;;5052201;28;20572;-75
2023/05/09 10:45:13;;;;;;;4.78;2.80;;;26.00;36.50;;;;;;5052314;28;20251;-75
2023/05/09 10:47:40;;;;;;;3.47;3.00;;;26.50;36.10;;;;;;5052193;28;20198;-76
2023/05/09 10:50:09;;;;;;;3.22;2.92;;;27.20;33.10;;;;;;5051978;28;20661;-75
2023/05/09 10:53:06;;;;;;;4.57;3.28;;;27.60;32.20;;;;;;5052020;28;20237;-76
2023/05/09 10:55:37;;;;;;;3.00;2.80;;;27.70;31.40;;;;;;5052079;28;20225;-75
2023/05/09 10:58:19;;;;;;;4.20;2.85;;;27.90;29.50;;;;;;5051901;28;20653;-75
2023/05/09 11:00:46;;;;;;;3.92;3.13;;;28.40;29.00;;;;;;5052151;28;20315;-75
2023/05/09 11:03:13;;;;;;;3.30;3.03;;;28.60;27.80;;;;;;5051895;28;20253;-75
2023/05/09 11:05:40;;;;;;;4.85;3.35;;;28.90;27.80;;;;;;5055271;28;20605;-76
2023/05/09 11:08:25;;;;;;;3.17;2.83;;;29.10;27.00;;;;;;5055014;28;20355;-77
2023/05/09 11:10:52;;;;;;;4.30;2.88;;;29.00;26.10;;;;;;5055452;28;20239;-77
2023/05/09 11:13:22;;;;;;;3.17;2.88;;;29.60;26.30;;;;;;5055649;28;20239;-75
2023/05/09 11:16:04;;;;;;;3.85;3.08;;;29.80;25.80;;;;;;5055617;28;20659;-76
2023/05/09 11:18:32;;;;;;;3.08;2.88;;;30.10;25.40;;;;;;5072903;28;20192;-77
2023/05/09 11:20:59;;;;;;;3.42;3.13;;;30.30;24.00;;;;;;5074655;28;20251;-78
2023/05/09 11:23:30;;;;;;;3.60;3.30;;;30.30;23.60;;;;;;5075108;28;20254;-78
2023/05/09 11:26:05;;;;;;;5.00;3.45;;;30.20;24.40;;;;;;5075243;28;20619;-78
2023/05/09 11:28:33;;;;;;;3.35;3.00;;;30.00;23.90;;;;;;5075450;28;20226;-78
2023/05/09 11:31:09;;;;;;;3.47;3.28;;;29.80;23.50;;;;;;5075169;28;20200;-78
2023/05/09 11:33:37;;;;;;;3.20;2.88;;;28.70;23.20;;;;;;5075177;28;20207;-76
2023/05/09 11:36:18;;;;;;;4.22;2.70;;;29.20;24.50;;;;;;5074961;28;20216;-77
2023/05/09 11:38:47;;;;;;;4.13;3.47;;;30.30;22.60;;;;;;5074943;28;20200;-76
2023/05/09 11:41:14;;;;;;;4.88;3.30;;;28.90;23.00;;;;;;5074837;28;20656;-75
2023/05/09 11:43:43;;;;;;;4.43;3.50;;;29.00;23.40;;;;;;5074783;28;20733;-77
2023/05/09 11:46:09;;;;;;;4.30;3.90;;;28.30;24.20;;;;;;5074875;28;20200;-75
2023/05/09 11:48:40;;;;;;;3.55;3.25;;;28.40;24.80;;;;;;5075032;28;20598;-75
2023/05/09 11:51:07;;;;;;;4.25;3.17;;;29.30;24.60;;;;;;5074346;28;20218;-77
2023/05/09 11:53:35;;;;;;;6.85;3.35;;;29.70;23.30;;;;;;5074817;28;20695;-74
2023/05/09 11:56:05;;;;;;;5.93;3.20;;;29.40;24.20;;;;;;5074817;28;20587;-86
2023/05/09 11:58:31;;;;;;;5.78;3.28;;;29.20;24.30;;;;;;5074832;28;20239;-73
2023/05/09 12:00:58;;;;;;;3.78;2.92;;;30.40;23.90;;;;;;5074666;28;20595;-73
2023/05/09 12:03:25;;;;;;;4.38;3.20;;;29.80;24.00;;;;;;5075193;28;20197;-73
2023/05/09 12:05:54;;;;;;;3.47;3.00;;;29.70;24.40;;;;;;5074835;28;20656;-73
2023/05/09 12:08:21;;;;;;;5.07;3.25;;;31.00;23.30;;;;;;5078816;28;20192;-74
2023/05/09 12:10:48;;;;;;;3.75;3.30;;;30.70;22.00;;;;;;5076947;28;20254;-73
2023/05/09 12:13:16;;;;;;;4.55;3.60;;;31.00;22.70;;;;;;5074688;28;20545;-75
2023/05/09 12:15:43;;;;;;;3.50;3.20;;;29.80;22.50;;;;;;5074017;28;20907;-75
2023/05/09 12:18:10;;;;;;;3.60;3.20;;;27.80;23.60;;;;;;5074819;28;20201;-75
2023/05/09 12:20:41;;;;;;;6.18;3.85;;;28.00;23.30;;;;;;5074629;28;20201;-74
2023/05/09 12:23:09;;;;;;;3.45;3.20;;;28.00;24.30;;;;;;5074608;28;20262;-75
2023/05/09 12:25:36;;;;;;;3.40;3.10;;;29.50;23.00;;;;;;5074386;28;20741;-75
2023/05/09 12:28:03;;;;;;;7.05;3.40;;;29.80;22.50;;;;;;5074548;28;20233;-74
2023/05/09 12:30:31;;;;;;;9.98;4.00;;;27.50;23.50;;;;;;5074861;28;20201;-75
2023/05/09 12:32:58;;;;;;;4.45;3.08;;;28.30;23.40;;;;;;5074816;28;20274;-75
2023/05/09 12:35:25;;;;;;;3.28;2.80;;;29.10;23.20;;;;;;5074362;28;20626;-75
2023/05/09 12:37:56;;;;;;;4.13;3.35;;;29.70;23.00;;;;;;5074332;28;20200;-75
2023/05/09 12:40:23;;;;;;;3.20;2.90;;;30.50;22.70;;;;;;5074030;28;20655;-75